Time;durP1;ratioP1;P1;durP2;ratioP2;P2;SDS_P1;SDS_P2;PMS_P1;PMS_P2;Temp;Humidity;BMP_temperature;BMP_pressure;BME280_temperature;BME280_humidity;BME280_pressure;Samples;Min_cycle;Max_cycle;Signal;HPM_P1;HPM_P2
2023/06/24 00:00:06;;;;;;;9.30;6.30;;;15.30;99.90;;;;;;5064628;28;20058;-82
2023/06/24 00:02:33;;;;;;;7.10;6.40;;;15.40;99.90;;;;;;5077493;28;20032;-82
2023/06/24 00:05:00;;;;;;;8.27;6.88;;;15.30;99.90;;;;;;5066361;27;20375;-82
2023/06/24 00:07:28;;;;;;;7.28;6.00;;;15.10;99.90;;;;;;5081775;27;20039;-82
2023/06/24 00:09:54;;;;;;;9.35;6.70;;;15.00;99.90;;;;;;5070564;27;20043;-82
2023/06/24 00:12:20;;;;;;;11.68;8.75;;;15.00;99.90;;;;;;5057881;28;20117;-82
2023/06/24 00:14:50;;;;;;;10.77;7.90;;;15.00;99.90;;;;;;5061587;28;20191;-82
2023/06/24 00:17:16;;;;;;;10.60;9.27;;;15.00;99.90;;;;;;5062102;28;20469;-82
2023/06/24 00:19:43;;;;;;;12.90;9.40;;;15.00;99.90;;;;;;5085888;28;20587;-82
2023/06/24 00:22:09;;;;;;;10.55;8.38;;;15.00;99.90;;;;;;5089079;28;20498;-82
2023/06/24 00:24:35;;;;;;;12.60;9.13;;;15.00;99.90;;;;;;5060788;28;20569;-82
2023/06/24 00:27:01;;;;;;;12.82;9.13;;;14.90;99.90;;;;;;5068193;28;20122;-81
2023/06/24 00:29:26;;;;;;;13.82;9.02;;;14.90;99.90;;;;;;5068649;28;20672;-82
2023/06/24 00:31:52;;;;;;;11.13;9.23;;;14.90;99.90;;;;;;5067173;28;20465;-82
2023/06/24 00:34:19;;;;;;;12.13;9.63;;;14.90;99.90;;;;;;5065079;28;20060;-82
2023/06/24 00:36:48;;;;;;;12.52;9.65;;;14.90;99.90;;;;;;5092046;28;20054;-82
2023/06/24 00:39:14;;;;;;;12.68;9.05;;;14.80;99.90;;;;;;5074829;28;20460;-81
2023/06/24 00:41:39;;;;;;;12.25;9.85;;;14.80;99.90;;;;;;5085808;28;20132;-82
2023/06/24 00:44:06;;;;;;;12.15;9.38;;;14.80;99.90;;;;;;5065578;28;20444;-82
2023/06/24 00:46:33;;;;;;;10.80;8.90;;;14.70;99.90;;;;;;5068317;28;20544;-82
2023/06/24 00:49:00;;;;;;;9.25;8.18;;;14.70;99.90;;;;;;5079054;28;20047;-81
2023/06/24 00:51:33;;;;;;;10.65;9.13;;;14.70;99.90;;;;;;5086022;28;20101;-81
2023/06/24 00:54:00;;;;;;;10.93;8.77;;;14.70;99.90;;;;;;5081083;28;20039;-82
2023/06/24 00:56:30;;;;;;;10.63;7.90;;;14.70;99.90;;;;;;5061736;28;20047;-81
2023/06/24 00:59:01;;;;;;;10.55;8.10;;;14.70;99.90;;;;;;5066595;28;20039;-82
2023/06/24 01:01:31;;;;;;;11.23;8.00;;;14.60;99.90;;;;;;5059521;28;20043;-82
2023/06/24 01:03:58;;;;;;;11.93;8.80;;;14.50;99.90;;;;;;5079043;28;20528;-82
2023/06/24 01:06:28;;;;;;;11.00;8.38;;;14.50;99.90;;;;;;5085524;28;20031;-82
2023/06/24 01:08:57;;;;;;;13.98;9.60;;;14.50;99.90;;;;;;5068216;28;20135;-82
2023/06/24 01:11:23;;;;;;;12.32;9.02;;;14.50;99.90;;;;;;5080862;28;20046;-81
2023/06/24 01:13:50;;;;;;;11.38;8.93;;;14.50;99.90;;;;;;5082905;28;20046;-82
2023/06/24 01:16:39;;;;;;;11.70;8.88;;;14.50;99.90;;;;;;5063484;28;20152;-82
2023/06/24 01:19:33;;;;;;;12.02;9.63;;;14.40;99.90;;;;;;5082910;28;20272;-82
2023/06/24 01:22:11;;;;;;;14.88;9.65;;;14.40;99.90;;;;;;5083665;27;20453;-82
2023/06/24 01:25:02;;;;;;;12.75;9.55;;;14.40;99.90;;;;;;5060626;28;20028;-82
2023/06/24 01:27:47;;;;;;;11.00;8.23;;;14.40;99.90;;;;;;5075375;27;20564;-82
2023/06/24 01:30:30;;;;;;;11.75;9.20;;;14.30;99.90;;;;;;5096823;28;20042;-82
2023/06/24 01:33:22;;;;;;;11.38;9.50;;;14.30;99.90;;;;;;5082147;27;20051;-82
2023/06/24 01:35:48;;;;;;;13.13;9.52;;;14.30;99.90;;;;;;5087423;27;20578;-82
2023/06/24 01:38:44;;;;;;;12.68;9.98;;;14.30;99.90;;;;;;5084859;27;20060;-81
2023/06/24 01:41:13;;;;;;;14.02;10.63;;;14.30;99.90;;;;;;5066939;28;20048;-81
2023/06/24 01:43:43;;;;;;;13.60;10.23;;;14.30;99.90;;;;;;5066471;27;20053;-81
2023/06/24 01:46:11;;;;;;;15.63;10.27;;;14.30;99.90;;;;;;5068316;27;20518;-82
2023/06/24 01:48:39;;;;;;;15.07;11.15;;;14.20;99.90;;;;;;5065969;27;20032;-82
2023/06/24 01:51:17;;;;;;;16.45;11.85;;;14.20;99.90;;;;;;5083846;27;20462;-81
2023/06/24 01:53:48;;;;;;;14.38;11.02;;;14.20;99.90;;;;;;5097585;27;20059;-82
2023/06/24 01:56:15;;;;;;;17.05;11.00;;;14.20;99.90;;;;;;5070615;27;20035;-82
2023/06/24 01:58:43;;;;;;;15.32;10.95;;;14.10;99.90;;;;;;5071107;27;20445;-82
2023/06/24 02:01:09;;;;;;;14.82;11.40;;;14.10;99.90;;;;;;5082856;27;20118;-82
2023/06/24 02:03:36;;;;;;;13.27;10.35;;;14.10;99.90;;;;;;5054321;28;20032;-82
2023/06/24 02:06:02;;;;;;;15.85;11.63;;;14.10;99.90;;;;;;5078016;27;20051;-82
2023/06/24 02:08:34;;;;;;;14.27;10.80;;;14.10;99.90;;;;;;5084008;27;20126;-82
2023/06/24 02:11:01;;;;;;;14.75;11.02;;;14.10;99.90;;;;;;5064944;28;20075;-82
2023/06/24 02:13:31;;;;;;;15.43;11.63;;;14.10;99.90;;;;;;5068865;27;20188;-82
2023/06/24 02:15:59;;;;;;;14.73;11.25;;;14.00;99.90;;;;;;5079321;27;20043;-82
2023/06/24 02:18:27;;;;;;;15.80;10.90;;;14.00;99.90;;;;;;5064313;27;20032;-82
2023/06/24 02:20:53;;;;;;;15.20;11.68;;;14.00;99.90;;;;;;5065905;27;20189;-81
2023/06/24 02:23:21;;;;;;;16.35;11.73;;;14.00;99.90;;;;;;5089139;28;20044;-82
2023/06/24 02:25:47;;;;;;;14.85;11.23;;;14.00;99.90;;;;;;5068854;28;20027;-82
2023/06/24 02:28:14;;;;;;;13.45;10.50;;;14.00;99.90;;;;;;5069734;27;20062;-82
2023/06/24 02:30:44;;;;;;;13.27;11.15;;;14.00;99.90;;;;;;5080763;27;20068;-82
2023/06/24 02:33:11;;;;;;;16.45;11.40;;;14.00;99.90;;;;;;5068984;28;20050;-82
2023/06/24 02:35:37;;;;;;;18.17;11.77;;;14.00;99.90;;;;;;5088028;27;20163;-82
2023/06/24 02:38:03;;;;;;;16.48;12.25;;;14.00;99.90;;;;;;5070029;28;20047;-82
2023/06/24 02:40:29;;;;;;;17.65;12.80;;;14.00;99.90;;;;;;5072544;27;20067;-82
2023/06/24 02:42:58;;;;;;;18.75;13.35;;;14.00;99.90;;;;;;5067552;27;20088;-81
2023/06/24 02:45:24;;;;;;;18.20;12.90;;;14.00;99.90;;;;;;5068746;27;20043;-82
2023/06/24 02:47:52;;;;;;;18.15;12.32;;;14.00;99.90;;;;;;5080635;28;20054;-82
2023/06/24 02:50:19;;;;;;;16.38;12.57;;;14.00;99.90;;;;;;5096308;27;20151;-82
2023/06/24 02:52:45;;;;;;;15.43;12.35;;;14.00;99.90;;;;;;5066990;27;20572;-81
2023/06/24 02:55:15;;;;;;;16.33;11.82;;;14.10;99.90;;;;;;5064745;27;20524;-82
2023/06/24 02:57:41;;;;;;;18.38;12.50;;;14.00;99.90;;;;;;5079908;27;20116;-82
2023/06/24 03:00:16;;;;;;;17.10;12.07;;;14.00;99.90;;;;;;5080411;28;20117;-82
2023/06/24 03:02:43;;;;;;;17.63;13.00;;;14.00;99.90;;;;;;5067852;27;20173;-82
2023/06/24 03:05:10;;;;;;;17.75;12.38;;;13.90;99.90;;;;;;5087923;27;20110;-82
2023/06/24 03:07:38;;;;;;;18.02;12.07;;;13.90;99.90;;;;;;5083721;27;20031;-82
2023/06/24 03:10:07;;;;;;;18.60;12.63;;;13.90;99.90;;;;;;5081779;27;20388;-82
2023/06/24 03:12:32;;;;;;;21.23;12.50;;;13.90;99.90;;;;;;5074678;28;20031;-82
2023/06/24 03:14:58;;;;;;;17.20;12.43;;;13.90;99.90;;;;;;5073512;27;20057;-82
2023/06/24 03:17:30;;;;;;;18.73;12.30;;;13.90;99.90;;;;;;5081143;28;20040;-81
2023/06/24 03:19:56;;;;;;;18.40;12.00;;;14.00;99.90;;;;;;5068962;27;20039;-82
2023/06/24 03:22:22;;;;;;;16.45;12.48;;;14.00;99.90;;;;;;5069935;27;20036;-82
2023/06/24 03:24:48;;;;;;;15.35;11.85;;;14.00;99.90;;;;;;5064791;28;20065;-82
2023/06/24 03:27:14;;;;;;;18.35;12.52;;;14.00;99.90;;;;;;5067022;28;20488;-82
2023/06/24 03:29:40;;;;;;;16.92;11.68;;;14.00;99.90;;;;;;5062802;28;20032;-82
2023/06/24 03:32:06;;;;;;;17.73;11.82;;;14.10;99.90;;;;;;5059713;27;20167;-82
2023/06/24 03:34:31;;;;;;;18.55;12.43;;;14.10;99.90;;;;;;5088156;27;20035;-82
2023/06/24 03:36:57;;;;;;;16.85;12.23;;;14.10;99.90;;;;;;5076414;27;20035;-82
2023/06/24 03:39:23;;;;;;;16.17;11.57;;;14.10;99.90;;;;;;5078101;27;20326;-82
2023/06/24 03:41:48;;;;;;;17.08;13.07;;;14.10;99.90;;;;;;5072783;27;20053;-82
2023/06/24 03:44:15;;;;;;;15.32;11.43;;;14.20;99.90;;;;;;5064640;28;20058;-82
2023/06/24 03:46:40;;;;;;;15.40;11.70;;;14.20;99.90;;;;;;5079596;28;20035;-82
2023/06/24 03:49:06;;;;;;;17.23;11.27;;;14.20;99.90;;;;;;5085763;27;20398;-82
2023/06/24 03:51:32;;;;;;;19.20;12.80;;;14.30;99.90;;;;;;5071092;27;20038;-82
2023/06/24 03:53:57;;;;;;;15.85;11.52;;;14.30;99.90;;;;;;5065998;27;20064;-82
2023/06/24 03:56:23;;;;;;;14.95;11.20;;;14.30;99.90;;;;;;5079615;27;20059;-81
2023/06/24 03:58:49;;;;;;;15.45;10.98;;;14.30;99.90;;;;;;5067594;28;20048;-82
2023/06/24 04:01:16;;;;;;;17.10;11.50;;;14.40;99.90;;;;;;5078421;28;20131;-81
2023/06/24 04:03:41;;;;;;;20.92;11.70;;;14.40;99.90;;;;;;5067585;28;20426;-82
2023/06/24 04:06:07;;;;;;;15.93;11.57;;;14.40;99.90;;;;;;5082914;28;20039;-82
2023/06/24 04:08:32;;;;;;;14.15;10.93;;;14.50;99.90;;;;;;5063994;28;20097;-82
2023/06/24 04:11:03;;;;;;;15.10;11.57;;;14.50;99.90;;;;;;5083777;28;20059;-82
2023/06/24 04:13:29;;;;;;;13.75;11.15;;;14.60;99.90;;;;;;5065273;27;20028;-82
2023/06/24 04:15:55;;;;;;;16.83;12.10;;;14.70;99.90;;;;;;5067950;28;20050;-82
2023/06/24 04:18:21;;;;;;;20.38;11.27;;;14.70;99.90;;;;;;5082198;28;20031;-81
2023/06/24 04:20:46;;;;;;;15.05;11.48;;;14.80;99.90;;;;;;5066282;28;20151;-82
2023/06/24 04:23:14;;;;;;;18.25;11.20;;;14.90;99.90;;;;;;5068947;28;20095;-82
2023/06/24 04:25:40;;;;;;;15.48;11.07;;;15.10;99.90;;;;;;5086190;28;20151;-82
2023/06/24 04:28:05;;;;;;;15.90;11.82;;;15.10;99.90;;;;;;5077347;28;20150;-82
2023/06/24 04:30:32;;;;;;;15.25;11.32;;;15.20;99.90;;;;;;5059115;28;20496;-81
2023/06/24 04:32:57;;;;;;;14.05;11.38;;;15.30;99.90;;;;;;5069730;28;20048;-81
2023/06/24 04:35:24;;;;;;;14.82;10.40;;;15.40;99.90;;;;;;5066009;28;20131;-81
2023/06/24 04:37:53;;;;;;;17.33;10.30;;;15.50;99.90;;;;;;5076062;28;20043;-81
2023/06/24 04:40:19;;;;;;;14.77;10.73;;;15.50;99.90;;;;;;5069336;28;20276;-81
2023/06/24 04:42:45;;;;;;;16.85;10.50;;;15.60;99.90;;;;;;5082777;28;21644;-81
2023/06/24 04:45:11;;;;;;;15.80;10.57;;;15.70;99.90;;;;;;5062788;28;20380;-81
2023/06/24 04:47:37;;;;;;;11.07;9.52;;;15.70;99.90;;;;;;5083226;28;20058;-81
2023/06/24 04:50:04;;;;;;;15.13;10.50;;;15.90;99.90;;;;;;5083434;28;20126;-81
2023/06/24 04:52:30;;;;;;;14.20;10.90;;;15.90;99.90;;;;;;5067697;28;20615;-81
2023/06/24 04:54:56;;;;;;;13.70;9.50;;;16.10;99.90;;;;;;5061854;28;20488;-81
2023/06/24 04:57:29;;;;;;;12.23;10.07;;;16.20;99.90;;;;;;5070775;28;20781;-82
2023/06/24 04:59:56;;;;;;;11.38;9.57;;;16.30;99.90;;;;;;5063547;28;20512;-81
2023/06/24 05:02:22;;;;;;;13.45;10.27;;;16.40;99.90;;;;;;5088914;27;20035;-82
2023/06/24 05:04:48;;;;;;;12.57;9.68;;;16.50;99.90;;;;;;5073777;27;20469;-81
2023/06/24 05:07:14;;;;;;;11.65;9.50;;;16.60;99.90;;;;;;5069579;27;20039;-81
2023/06/24 05:09:40;;;;;;;14.82;10.30;;;16.60;99.90;;;;;;5096134;27;20051;-81
2023/06/24 05:12:06;;;;;;;15.82;10.10;;;16.70;99.90;;;;;;5069209;27;20099;-81
2023/06/24 05:14:34;;;;;;;11.88;10.07;;;16.80;99.90;;;;;;5072257;27;20043;-81
2023/06/24 05:17:00;;;;;;;15.73;9.90;;;16.90;99.90;;;;;;5082327;28;20578;-81
2023/06/24 05:19:26;;;;;;;12.85;9.63;;;16.90;99.90;;;;;;5085216;27;20106;-82
2023/06/24 05:21:52;;;;;;;14.85;9.55;;;16.90;99.90;;;;;;5104920;27;20126;-81
2023/06/24 05:24:17;;;;;;;13.70;10.55;;;17.10;99.90;;;;;;5084195;28;20522;-81
2023/06/24 05:26:46;;;;;;;14.05;10.68;;;17.30;99.90;;;;;;5067965;28;20063;-81
2023/06/24 05:29:11;;;;;;;14.23;10.00;;;17.40;99.90;;;;;;5067128;28;20055;-81
2023/06/24 05:31:37;;;;;;;14.90;10.27;;;17.50;99.90;;;;;;5086421;28;20042;-81
2023/06/24 05:34:03;;;;;;;13.50;10.48;;;17.60;99.90;;;;;;5087711;27;20035;-81
2023/06/24 05:36:28;;;;;;;13.35;9.63;;;17.70;99.90;;;;;;5086467;27;20078;-81
2023/06/24 05:38:54;;;;;;;12.10;9.68;;;17.80;99.90;;;;;;5089648;27;20047;-81
2023/06/24 05:41:20;;;;;;;12.20;9.63;;;17.90;99.90;;;;;;5067575;27;20523;-81
2023/06/24 05:43:46;;;;;;;11.68;9.82;;;18.00;99.90;;;;;;5061723;28;20441;-82
2023/06/24 05:46:11;;;;;;;16.00;10.75;;;18.10;99.90;;;;;;5071908;27;20042;-81
2023/06/24 05:48:37;;;;;;;16.50;10.13;;;18.20;99.90;;;;;;5083846;27;20409;-81
2023/06/24 05:51:03;;;;;;;12.18;10.20;;;18.30;99.90;;;;;;5085833;27;20413;-81
2023/06/24 05:53:29;;;;;;;16.25;9.65;;;18.50;99.90;;;;;;5065078;27;20032;-81
2023/06/24 05:55:54;;;;;;;14.48;9.70;;;18.60;99.90;;;;;;5072140;27;20125;-81
2023/06/24 05:58:22;;;;;;;12.93;9.20;;;18.80;99.90;;;;;;5086496;27;20396;-81
2023/06/24 06:00:48;;;;;;;11.77;9.38;;;18.90;99.90;;;;;;5080196;28;20116;-81
2023/06/24 06:03:14;;;;;;;13.07;9.70;;;19.00;99.90;;;;;;5070064;27;22104;-82
2023/06/24 06:05:40;;;;;;;13.60;9.60;;;19.20;99.90;;;;;;5080809;27;20032;-81
2023/06/24 06:08:05;;;;;;;14.77;9.55;;;19.20;99.90;;;;;;5076931;28;20058;-81
2023/06/24 06:10:31;;;;;;;11.82;9.77;;;19.30;99.90;;;;;;5064197;27;20104;-81
2023/06/24 06:12:56;;;;;;;14.15;9.35;;;19.50;99.90;;;;;;5114484;27;20118;-81
2023/06/24 06:15:22;;;;;;;13.30;9.60;;;19.60;99.90;;;;;;5084021;27;20122;-81
2023/06/24 06:17:48;;;;;;;14.02;10.10;;;19.60;99.90;;;;;;5084726;27;20035;-81
2023/06/24 06:20:16;;;;;;;12.00;8.70;;;19.80;99.90;;;;;;5082999;27;20073;-82
2023/06/24 06:22:41;;;;;;;11.02;8.88;;;19.90;99.90;;;;;;5079894;28;20040;-81
2023/06/24 06:25:07;;;;;;;11.75;8.38;;;20.10;99.90;;;;;;5086290;27;20459;-81
2023/06/24 06:27:36;;;;;;;11.90;8.13;;;20.20;99.90;;;;;;5065744;27;20486;-81
2023/06/24 06:30:03;;;;;;;11.90;8.88;;;20.40;99.90;;;;;;5081298;28;20069;-81
2023/06/24 06:32:28;;;;;;;9.43;8.23;;;20.40;99.90;;;;;;5083322;28;20082;-81
2023/06/24 06:34:54;;;;;;;12.10;8.43;;;20.70;99.90;;;;;;5082449;27;20446;-81
2023/06/24 06:37:20;;;;;;;10.77;8.20;;;20.80;99.90;;;;;;5069547;27;20028;-81
2023/06/24 06:39:45;;;;;;;12.63;8.95;;;21.00;99.90;;;;;;5086652;27;20861;-82
2023/06/24 06:42:11;;;;;;;12.93;8.15;;;21.00;99.90;;;;;;5071085;27;20306;-81
2023/06/24 06:44:37;;;;;;;11.75;8.52;;;21.10;99.90;;;;;;5083492;27;20040;-82
2023/06/24 06:47:02;;;;;;;11.45;9.18;;;21.20;99.90;;;;;;5070886;27;20031;-81
2023/06/24 06:49:28;;;;;;;11.88;8.40;;;21.40;99.90;;;;;;5087075;27;20039;-81
2023/06/24 06:51:55;;;;;;;11.98;8.85;;;21.70;99.90;;;;;;5072609;27;20047;-81
2023/06/24 06:54:20;;;;;;;13.68;9.52;;;21.70;99.90;;;;;;5083346;27;20065;-82
2023/06/24 06:56:49;;;;;;;12.80;9.35;;;21.90;99.90;;;;;;5089049;27;20213;-82
2023/06/24 06:59:14;;;;;;;14.70;10.00;;;22.00;99.90;;;;;;5065579;27;20423;-81
2023/06/24 07:01:40;;;;;;;13.50;10.00;;;22.30;99.90;;;;;;5075116;28;20039;-80
2023/06/24 07:04:06;;;;;;;14.07;9.82;;;22.40;99.90;;;;;;5067228;28;20031;-80
2023/06/24 07:06:32;;;;;;;12.93;9.45;;;22.70;99.90;;;;;;5066213;27;20157;-81
2023/06/24 07:08:58;;;;;;;14.20;9.88;;;22.80;99.90;;;;;;5093199;27;20151;-81
2023/06/24 07:11:24;;;;;;;12.60;8.77;;;23.10;99.90;;;;;;5077086;28;20062;-81
2023/06/24 07:13:51;;;;;;;12.02;9.05;;;23.10;99.90;;;;;;5066142;28;20086;-81
2023/06/24 07:16:17;;;;;;;13.75;9.10;;;23.00;99.90;;;;;;5063920;27;20047;-81
2023/06/24 07:18:43;;;;;;;11.40;8.93;;;23.10;99.90;;;;;;5061367;27;20641;-81
2023/06/24 07:21:09;;;;;;;11.07;8.93;;;23.30;99.90;;;;;;5064722;28;20044;-81
2023/06/24 07:23:35;;;;;;;11.77;9.05;;;23.30;99.90;;;;;;5113491;27;20043;-81
2023/06/24 07:26:00;;;;;;;14.30;8.68;;;23.30;99.90;;;;;;5061604;28;20032;-81
2023/06/24 07:28:26;;;;;;;9.60;7.95;;;23.20;99.90;;;;;;5072292;27;20081;-81
2023/06/24 07:30:51;;;;;;;11.77;8.18;;;23.50;99.90;;;;;;5066632;28;20049;-81
2023/06/24 07:33:17;;;;;;;16.67;9.05;;;23.40;99.90;;;;;;5069936;27;20116;-81
2023/06/24 07:35:43;;;;;;;13.13;10.05;;;23.40;99.90;;;;;;5078554;28;20054;-81
2023/06/24 07:38:08;;;;;;;13.00;9.75;;;23.50;99.90;;;;;;5060702;28;20044;-81
2023/06/24 07:40:34;;;;;;;13.40;8.18;;;23.40;99.90;;;;;;5078696;27;20050;-81
2023/06/24 07:43:00;;;;;;;10.40;8.98;;;23.40;99.90;;;;;;5075539;27;20153;-81
2023/06/24 07:45:26;;;;;;;11.07;8.68;;;23.40;99.90;;;;;;5056918;28;20474;-81
2023/06/24 07:47:51;;;;;;;10.57;8.10;;;23.70;99.90;;;;;;5086676;28;20107;-81
2023/06/24 07:50:17;;;;;;;11.18;8.23;;;23.90;99.90;;;;;;5063424;28;20042;-81
2023/06/24 07:52:43;;;;;;;10.20;8.45;;;24.00;99.90;;;;;;5061733;27;20122;-81
2023/06/24 07:55:08;;;;;;;10.23;7.70;;;24.10;99.90;;;;;;5063597;28;20071;-81
2023/06/24 07:57:34;;;;;;;10.65;8.00;;;24.20;99.90;;;;;;5080226;27;20077;-81
2023/06/24 08:00:00;;;;;;;12.20;7.38;;;24.50;99.90;;;;;;5080591;28;20134;-81
2023/06/24 08:02:26;;;;;;;11.88;8.75;;;24.80;99.90;;;;;;5076317;28;20204;-81
2023/06/24 08:04:52;;;;;;;9.65;8.40;;;24.80;99.90;;;;;;5084469;28;20028;-81
2023/06/24 08:07:17;;;;;;;9.00;7.30;;;24.80;99.90;;;;;;5065274;27;20043;-81
2023/06/24 08:09:43;;;;;;;10.35;7.50;;;25.00;99.90;;;;;;5064958;28;20151;-81
2023/06/24 08:12:09;;;;;;;8.98;6.97;;;24.90;99.90;;;;;;5084384;27;20085;-82
2023/06/24 08:14:35;;;;;;;9.70;6.97;;;25.10;99.90;;;;;;5060962;28;20487;-82
2023/06/24 08:17:01;;;;;;;10.70;6.68;;;25.30;99.90;;;;;;5067950;28;20046;-82
2023/06/24 08:19:27;;;;;;;11.40;7.07;;;25.40;99.90;;;;;;5064789;28;20035;-81
2023/06/24 08:21:53;;;;;;;9.02;7.15;;;25.30;99.90;;;;;;5071540;28;20039;-81
2023/06/24 08:24:19;;;;;;;9.40;7.35;;;25.20;99.90;;;;;;5078561;28;20421;-81
2023/06/24 08:26:47;;;;;;;9.55;7.55;;;25.60;99.90;;;;;;5082449;28;20175;-81
2023/06/24 08:29:13;;;;;;;10.88;6.70;;;25.50;99.90;;;;;;5077949;28;20135;-81
2023/06/24 08:31:38;;;;;;;10.48;6.65;;;25.60;99.90;;;;;;5080263;28;20043;-82
2023/06/24 08:34:06;;;;;;;8.45;6.18;;;25.60;99.90;;;;;;5071727;27;20035;-82
2023/06/24 08:36:31;;;;;;;9.05;6.13;;;25.90;99.90;;;;;;5073843;27;20035;-81
2023/06/24 08:38:57;;;;;;;6.78;5.10;;;25.60;99.90;;;;;;5073636;27;20043;-81
2023/06/24 08:41:24;;;;;;;5.30;4.80;;;25.70;99.90;;;;;;5083418;28;20051;-81
2023/06/24 08:43:50;;;;;;;7.32;4.85;;;26.10;99.90;;;;;;5107085;27;20077;-81
2023/06/24 08:46:17;;;;;;;10.25;5.07;;;25.80;99.90;;;;;;5062595;28;20153;-81
2023/06/24 08:48:45;;;;;;;6.75;5.15;;;26.00;99.90;;;;;;5060489;27;20043;-82
2023/06/24 08:51:14;;;;;;;7.22;4.97;;;26.00;1.00;;;;;;5084586;27;20036;-81
2023/06/24 08:53:43;;;;;;;7.40;5.15;;;26.00;25.00;;;;;;5061067;27;20044;-81
2023/06/24 08:56:09;;;;;;;6.40;4.40;;;25.80;99.90;;;;;;5081725;27;20126;-81
2023/06/24 08:58:35;;;;;;;5.82;4.35;;;26.00;81.60;;;;;;5084537;27;20039;-81
2023/06/24 09:01:02;;;;;;;5.53;4.60;;;26.00;1.00;;;;;;5066559;27;20036;-82
2023/06/24 09:03:28;;;;;;;7.63;4.40;;;26.20;1.00;;;;;;5078715;28;20101;-81
2023/06/24 09:05:54;;;;;;;5.35;4.07;;;26.40;91.90;;;;;;5066964;28;20952;-81
2023/06/24 09:08:21;;;;;;;5.50;3.80;;;26.10;1.00;;;;;;5064847;28;20407;-81
2023/06/24 09:10:55;;;;;;;4.97;3.85;;;26.00;99.90;;;;;;5066273;28;20152;-81
2023/06/24 09:13:27;;;;;;;6.65;3.88;;;26.10;1.00;;;;;;5070419;27;20041;-81
2023/06/24 09:15:52;;;;;;;7.47;4.60;;;26.10;50.90;;;;;;5062488;27;20101;-81
2023/06/24 09:18:18;;;;;;;6.35;4.50;;;25.80;99.90;;;;;;5086379;27;20039;-82
2023/06/24 09:20:45;;;;;;;5.20;4.05;;;26.40;99.90;;;;;;5091590;27;20452;-82
2023/06/24 09:23:11;;;;;;;5.95;4.18;;;26.50;1.00;;;;;;5088639;27;20109;-81
2023/06/24 09:25:37;;;;;;;7.75;4.82;;;26.60;99.90;;;;;;5067628;28;20133;-82
2023/06/24 09:28:03;;;;;;;8.10;5.07;;;26.50;99.90;;;;;;5101804;27;20040;-81
2023/06/24 09:30:29;;;;;;;9.48;4.72;;;26.40;99.90;;;;;;5083847;27;20126;-81
2023/06/24 09:32:55;;;;;;;5.45;4.25;;;26.20;99.90;;;;;;5078569;28;20452;-82
2023/06/24 09:35:23;;;;;;;7.55;4.80;;;26.50;99.90;;;;;;5085319;28;20046;-81
2023/06/24 09:37:56;;;;;;;6.95;5.30;;;26.40;99.90;;;;;;5069245;27;20062;-81
2023/06/24 09:40:23;;;;;;;7.93;5.77;;;26.50;17.10;;;;;;5071338;27;20672;-81
2023/06/24 09:42:53;;;;;;;7.63;5.25;;;26.50;99.90;;;;;;5083683;28;20143;-81
2023/06/24 09:45:29;;;;;;;7.78;5.22;;;26.20;99.90;;;;;;5071838;27;20439;-81
2023/06/24 09:47:57;;;;;;;7.53;5.22;;;26.00;42.80;;;;;;5083125;28;20042;-81
2023/06/24 09:50:23;;;;;;;7.90;5.68;;;26.30;46.90;;;;;;5071380;28;20088;-81
2023/06/24 09:52:51;;;;;;;7.13;4.40;;;26.70;99.90;;;;;;5072688;28;20043;-81
2023/06/24 09:55:18;;;;;;;6.60;4.70;;;27.00;1.00;;;;;;5073451;28;20066;-81
2023/06/24 09:57:50;;;;;;;7.97;4.38;;;26.70;1.00;;;;;;5105762;28;20123;-81
2023/06/24 10:00:18;;;;;;;5.50;4.00;;;27.20;19.30;;;;;;5088941;27;20114;-82
2023/06/24 10:02:45;;;;;;;8.95;4.35;;;27.20;99.90;;;;;;5088814;28;20417;-82
2023/06/24 10:05:13;;;;;;;5.63;4.30;;;26.70;99.90;;;;;;5068361;27;20147;-81
2023/06/24 10:07:40;;;;;;;6.97;4.47;;;26.90;99.90;;;;;;5068917;27;20118;-81
2023/06/24 10:10:07;;;;;;;5.05;4.15;;;26.90;1.00;;;;;;5084056;27;20036;-81
2023/06/24 10:12:34;;;;;;;5.25;4.30;;;27.20;1.00;;;;;;5084771;27;20533;-82
2023/06/24 10:15:01;;;;;;;6.70;4.80;;;26.80;1.00;;;;;;5068240;27;20498;-81
2023/06/24 10:17:26;;;;;;;5.88;4.25;;;26.70;99.90;;;;;;5097773;27;20550;-82
2023/06/24 10:19:56;;;;;;;5.35;3.75;;;27.00;99.90;;;;;;5066495;27;20048;-81
2023/06/24 10:22:24;;;;;;;8.35;4.10;;;27.30;80.00;;;;;;5088503;27;20044;-81
2023/06/24 10:24:51;;;;;;;7.22;4.30;;;27.20;99.90;;;;;;5070760;27;20036;-81
2023/06/24 10:27:23;;;;;;;6.70;4.03;;;27.60;99.90;;;;;;5069618;28;20085;-81
2023/06/24 10:29:53;;;;;;;6.63;3.85;;;27.50;99.90;;;;;;5059890;27;20552;-81
2023/06/24 10:32:25;;;;;;;7.10;4.38;;;26.70;99.90;;;;;;5082703;28;20634;-81
2023/06/24 10:34:57;;;;;;;6.18;4.10;;;26.40;99.90;;;;;;5080043;27;20045;-81
2023/06/24 10:37:25;;;;;;;6.28;3.55;;;27.30;99.90;;;;;;5086823;27;20486;-81
2023/06/24 10:39:57;;;;;;;4.68;3.30;;;27.20;99.90;;;;;;5083142;27;20035;-82
2023/06/24 10:42:43;;;;;;;5.85;4.20;;;27.40;98.10;;;;;;5081440;27;20478;-82
2023/06/24 10:45:08;;;;;;;5.47;3.80;;;27.40;99.90;;;;;;5066186;28;20047;-81
2023/06/24 10:47:35;;;;;;;5.85;3.60;;;26.60;1.00;;;;;;5063943;27;20040;-82
2023/06/24 10:50:01;;;;;;;8.52;4.00;;;27.30;71.80;;;;;;5065606;28;20055;-81
2023/06/24 10:52:27;;;;;;;8.50;3.83;;;27.70;99.90;;;;;;5081542;28;20032;-82
2023/06/24 10:54:53;;;;;;;6.93;4.03;;;28.30;99.90;;;;;;5076723;28;20047;-82
2023/06/24 10:57:27;;;;;;;4.78;3.63;;;28.70;99.90;;;;;;5064367;28;20122;-82
2023/06/24 10:59:55;;;;;;;7.67;3.60;;;28.60;1.00;;;;;;5069249;27;20051;-81
2023/06/24 11:02:24;;;;;;;5.18;3.50;;;29.10;1.00;;;;;;5084033;28;20035;-81
2023/06/24 11:04:51;;;;;;;5.15;3.63;;;28.10;1.00;;;;;;5070247;27;20200;-81
2023/06/24 11:07:18;;;;;;;5.63;3.83;;;27.60;99.90;;;;;;5069663;28;20043;-82
2023/06/24 11:10:01;;;;;;;4.78;3.40;;;28.00;1.00;;;;;;5063082;28;20047;-81
2023/06/24 11:12:31;;;;;;;5.03;3.50;;;28.60;1.00;;;;;;5082160;27;20031;-82
2023/06/24 11:14:58;;;;;;;8.68;3.90;;;28.50;1.00;;;;;;5079552;27;20039;-81
2023/06/24 11:17:24;;;;;;;6.00;4.00;;;27.90;99.90;;;;;;5062420;28;20043;-81
2023/06/24 11:19:52;;;;;;;5.43;3.50;;;28.30;1.00;;;;;;5061578;28;20053;-81
2023/06/24 11:22:18;;;;;;;6.82;4.07;;;28.70;2.50;;;;;;5070671;27;20377;-81
2023/06/24 11:24:43;;;;;;;5.88;3.10;;;28.40;99.90;;;;;;5068955;28;20040;-82
2023/06/24 11:27:09;;;;;;;4.57;3.38;;;28.10;99.90;;;;;;5080906;27;20031;-81
2023/06/24 11:29:38;;;;;;;6.20;3.53;;;28.00;99.90;;;;;;5071117;28;20135;-81
2023/06/24 11:32:07;;;;;;;7.68;3.72;;;28.20;99.90;;;;;;5068597;28;20659;-82
2023/06/24 11:34:33;;;;;;;4.57;3.70;;;28.30;99.90;;;;;;5082999;28;20044;-81
2023/06/24 11:37:09;;;;;;;5.95;3.65;;;27.80;99.90;;;;;;5075369;28;20044;-81
2023/06/24 11:39:35;;;;;;;5.05;3.45;;;27.60;99.90;;;;;;5068950;27;20158;-81
2023/06/24 11:42:00;;;;;;;5.50;4.10;;;28.30;99.90;;;;;;5082001;28;20134;-81
2023/06/24 11:44:26;;;;;;;5.45;3.72;;;28.40;99.90;;;;;;5067234;28;20513;-84
2023/06/24 11:46:52;;;;;;;5.95;3.80;;;28.90;99.90;;;;;;5064173;28;20031;-82
2023/06/24 11:49:18;;;;;;;6.32;3.15;;;28.40;99.90;;;;;;5093605;27;20039;-82
2023/06/24 11:51:52;;;;;;;5.10;3.40;;;27.80;99.90;;;;;;5079387;28;20040;-80
2023/06/24 11:54:20;;;;;;;4.05;3.22;;;27.40;99.90;;;;;;5065256;28;20514;-82
2023/06/24 11:56:51;;;;;;;3.50;3.20;;;27.40;99.90;;;;;;5081259;28;20038;-82
2023/06/24 11:59:21;;;;;;;5.40;4.13;;;27.70;99.90;;;;;;5058747;28;20119;-81
2023/06/24 12:01:54;;;;;;;5.03;3.78;;;27.10;99.90;;;;;;5064376;28;20122;-81
2023/06/24 12:04:20;;;;;;;5.63;4.20;;;27.30;99.90;;;;;;5084837;28;20043;-81
2023/06/24 12:06:46;;;;;;;5.20;4.28;;;27.80;99.90;;;;;;5062535;28;20063;-81
2023/06/24 12:09:12;;;;;;;4.72;4.00;;;27.80;99.90;;;;;;5064001;28;20413;-83
2023/06/24 12:11:38;;;;;;;5.95;3.92;;;28.10;99.90;;;;;;5079963;27;20065;-81
2023/06/24 12:14:09;;;;;;;4.53;3.75;;;28.70;99.90;;;;;;5062875;28;20036;-81
2023/06/24 12:16:35;;;;;;;4.88;3.45;;;27.90;99.90;;;;;;5059222;28;20067;-81
2023/06/24 12:19:01;;;;;;;4.43;3.53;;;28.00;99.90;;;;;;5080998;28;20128;-81
2023/06/24 12:21:26;;;;;;;6.57;3.92;;;27.60;99.90;;;;;;5084298;28;20111;-81
2023/06/24 12:23:52;;;;;;;5.05;3.63;;;27.30;99.90;;;;;;5064180;28;20047;-81
2023/06/24 12:26:17;;;;;;;4.57;3.65;;;27.40;99.90;;;;;;5082196;28;20532;-81
2023/06/24 12:28:43;;;;;;;5.60;4.40;;;28.00;99.90;;;;;;5056658;28;20031;-81
2023/06/24 12:31:09;;;;;;;5.25;3.97;;;28.40;99.90;;;;;;5080458;28;20482;-81
2023/06/24 12:33:37;;;;;;;8.77;4.15;;;27.90;99.90;;;;;;5082505;28;20061;-81
2023/06/24 12:36:02;;;;;;;4.88;3.60;;;28.50;99.90;;;;;;5068291;28;20497;-81
2023/06/24 12:38:28;;;;;;;5.22;3.70;;;28.90;99.90;;;;;;5065393;28;20178;-81